createdAt,value
2022-08-18T00:01:02.719Z,98062.31
2022-08-18T00:04:16.978Z,98068.28
2022-08-18T00:07:29.963Z,98072.00
2022-08-18T00:10:31.818Z,98068.28
2022-08-18T00:13:33.690Z,98063.72
2022-08-18T00:16:36.823Z,98069.13
2022-08-18T00:19:47.753Z,98064.56
2022-08-18T00:22:52.997Z,98063.31
2022-08-18T00:25:55.303Z,98063.16
2022-08-18T00:28:56.933Z,98055.59
2022-08-18T00:32:00.280Z,98053.03
2022-08-18T00:35:05.988Z,98061.16
2022-08-18T00:38:08.385Z,98060.00
2022-08-18T00:41:26.858Z,98057.31
2022-08-18T00:44:28.329Z,98058.31
2022-08-18T00:47:41.663Z,98056.59
2022-08-18T00:50:55.072Z,98052.91
2022-08-18T00:54:00.528Z,98053.75
2022-08-18T00:57:04.154Z,98041.50
2022-08-18T01:00:13.203Z,98044.63
2022-08-18T01:03:22.373Z,98050.44
2022-08-18T01:06:29.457Z,98060.56
2022-08-18T01:09:31.134Z,98069.97
2022-08-18T01:12:46.364Z,98065.41
2022-08-18T01:15:48.360Z,98063.56
2022-08-18T01:19:10.069Z,98064.97
2022-08-18T01:22:14.841Z,98065.13
2022-08-18T01:25:38.598Z,98060.16
2022-08-18T01:28:44.472Z,98061.84
2022-08-18T01:31:54.335Z,98058.56
2022-08-18T01:34:56.881Z,98058.69
2022-08-18T01:37:58.379Z,98060.56
2022-08-18T01:41:28.543Z,98063.41
2022-08-18T01:44:23.256Z,98060.84
2022-08-18T01:47:25.317Z,98062.69
2022-08-18T01:50:26.990Z,98054.00
2022-08-18T01:53:29.203Z,98057.84
2022-08-18T01:56:32.237Z,98047.44
2022-08-18T01:59:35.415Z,98052.41
2022-08-18T02:02:37.726Z,98051.44
2022-08-18T02:05:40.934Z,98062.38
2022-08-18T02:08:46.501Z,98065.66
2022-08-18T02:11:56.697Z,98062.09
2022-08-18T02:14:58.240Z,98078.47
2022-08-18T02:18:02.880Z,98075.03
2022-08-18T02:21:10.003Z,98080.56
2022-08-18T02:24:12.283Z,98075.59
2022-08-18T02:27:16.269Z,98069.47
2022-08-18T02:30:18.706Z,98067.03
2022-08-18T02:33:20.429Z,98066.06
2022-08-18T02:36:25.303Z,98060.66
2022-08-18T02:39:29.357Z,98058.19
2022-08-18T02:42:32.575Z,98062.59
2022-08-18T02:45:34.202Z,98055.34
2022-08-18T02:48:35.888Z,98061.03
2022-08-18T02:51:38.440Z,98055.06
2022-08-18T02:54:40.253Z,98064.03
2022-08-18T02:57:44.475Z,98060.19
2022-08-18T03:00:47.663Z,98065.75
2022-08-18T03:03:49.174Z,98071.53
2022-08-18T03:06:50.879Z,98067.00
2022-08-18T03:09:52.783Z,98079.75
2022-08-18T03:12:55.781Z,98075.22
2022-08-18T03:15:57.852Z,98069.69
2022-08-18T03:19:00.763Z,98065.28
2022-08-18T03:22:02.927Z,98071.19
2022-08-18T03:25:05.370Z,98062.75
2022-08-18T03:28:08.474Z,98061.31
2022-08-18T03:31:11.208Z,98064.16
2022-08-18T03:34:13.020Z,98069.84
2022-08-18T03:37:16.677Z,98062.84
2022-08-18T03:40:18.375Z,98063.41
2022-08-18T03:43:49.864Z,98061.56
2022-08-18T03:46:43.998Z,98063.09
2022-08-18T03:49:46.493Z,98068.75
2022-08-18T03:52:48.673Z,98062.38
2022-08-18T03:55:52.837Z,98061.94
2022-08-18T03:58:57.278Z,98066.59
2022-08-18T04:01:59.478Z,98069.28
2022-08-18T04:05:01.319Z,98080.22
2022-08-18T04:08:07.189Z,98087.47
2022-08-18T04:11:15.399Z,98082.66
2022-08-18T04:14:19.367Z,98088.06
2022-08-18T04:17:25.334Z,98093.47
2022-08-18T04:20:27.397Z,98089.34
2022-08-18T04:23:39.400Z,98086.91
2022-08-18T04:26:47.289Z,98084.63
2022-08-18T04:29:50.496Z,98091.38
2022-08-18T04:32:52.515Z,98094.06
2022-08-18T04:35:56.001Z,98091.09
2022-08-18T04:38:58.800Z,98094.13
2022-08-18T04:42:01.690Z,98085.88
2022-08-18T04:45:07.334Z,98097.06
2022-08-18T04:48:08.790Z,98102.38
2022-08-18T04:52:30.984Z,98108.34
2022-08-18T04:54:39.286Z,98096.13
2022-08-18T04:57:43.797Z,98099.84
2022-08-18T05:00:47.220Z,98095.56
2022-08-18T05:03:50.286Z,98102.53
2022-08-18T05:06:52.126Z,98111.13
2022-08-18T05:09:54.389Z,98107.56
2022-08-18T05:12:56.679Z,98101.28
2022-08-18T05:16:11.937Z,98101.88
2022-08-18T05:19:25.949Z,98113.25
2022-08-18T05:22:31.011Z,98112.00
2022-08-18T05:25:33.892Z,98114.44
2022-08-18T05:28:37.123Z,98110.75
2022-08-18T05:31:40.488Z,98112.44
2022-08-18T05:34:42.624Z,98120.44
2022-08-18T05:37:47.663Z,98121.31
2022-08-18T05:41:06.567Z,98122.31
2022-08-18T05:44:09.430Z,98132.13
2022-08-18T05:47:14.083Z,98121.06
2022-08-18T05:50:17.506Z,98116.50
2022-08-18T05:53:20.681Z,98125.00
2022-08-18T05:56:45.997Z,98126.53
2022-08-18T05:59:49.005Z,98120.97
2022-08-18T06:02:55.524Z,98133.63
2022-08-18T06:05:59.450Z,98125.38
2022-08-18T06:09:05.710Z,98122.09
2022-08-18T06:12:14.930Z,98126.91
2022-08-18T06:15:18.772Z,98122.09
2022-08-18T06:18:31.310Z,98120.25
2022-08-18T06:21:39.438Z,98125.53
2022-08-18T06:24:44.583Z,98126.38
2022-08-18T06:27:55.825Z,98132.66
2022-08-18T06:30:59.979Z,98135.81
2022-08-18T06:34:12.473Z,98145.44
2022-08-18T06:37:18.066Z,98153.13
2022-08-18T06:40:19.716Z,98153.66
2022-08-18T06:43:21.955Z,98162.28
2022-08-18T06:46:25.544Z,98165.03
2022-08-18T06:49:38.809Z,98163.47
2022-08-18T06:52:54.209Z,98170.34
2022-08-18T06:55:59.521Z,98173.25
2022-08-18T06:59:22.053Z,98172.53
2022-08-18T07:02:27.167Z,98175.84
2022-08-18T07:05:31.590Z,98181.25
2022-08-18T07:08:35.774Z,98179.53
2022-08-18T07:11:43.290Z,98181.28
2022-08-18T07:14:48.877Z,98182.44
2022-08-18T07:17:50.642Z,98186.09
2022-08-18T07:20:55.337Z,98187.22
2022-08-18T07:24:23.221Z,98192.78
2022-08-18T07:27:22.667Z,98192.06
2022-08-18T07:30:29.992Z,98194.50
2022-08-18T07:33:31.982Z,98194.94
2022-08-18T07:36:40.457Z,98200.81
2022-08-18T07:39:47.426Z,98206.78
2022-08-18T07:43:01.046Z,98196.78
2022-08-18T07:46:06.037Z,98192.22
2022-08-18T07:49:07.815Z,98187.56
2022-08-18T07:52:44.230Z,98190.97
2022-08-18T07:55:42.139Z,98198.50
2022-08-18T07:58:46.724Z,98196.91
2022-08-18T08:01:52.629Z,98201.75
2022-08-18T08:05:00.053Z,98191.97
2022-08-18T08:08:10.951Z,98187.56
2022-08-18T08:11:19.277Z,98189.97
2022-08-18T08:14:26.914Z,98182.16
2022-08-18T08:17:32.593Z,98181.34
2022-08-18T08:20:39.285Z,98182.34
2022-08-18T08:23:47.006Z,98180.97
2022-08-18T08:26:52.892Z,98180.88
2022-08-18T08:30:01.788Z,98189.72
2022-08-18T08:33:08.375Z,98189.72
2022-08-18T08:36:12.073Z,98198.28
2022-08-18T08:39:18.166Z,98198.13
2022-08-18T08:42:30.533Z,98205.13
2022-08-18T08:45:37.243Z,98200.00
2022-08-18T08:48:41.824Z,98201.41
2022-08-18T08:51:47.056Z,98208.00
2022-08-18T08:54:56.449Z,98202.00
2022-08-18T08:58:02.581Z,98201.72
2022-08-18T09:01:05.013Z,98203.16
2022-08-18T09:04:17.479Z,98200.28
2022-08-18T09:07:27.322Z,98196.53
2022-08-18T09:10:43.826Z,98199.00
2022-08-18T09:14:00.318Z,98194.69
2022-08-18T09:17:12.291Z,98207.41
2022-08-18T09:20:33.079Z,98213.13
2022-08-18T09:23:39.978Z,98213.97
2022-08-18T09:26:44.237Z,98211.00
2022-08-18T09:29:49.671Z,98215.13
2022-08-18T09:33:02.436Z,98215.81
2022-08-18T09:36:28.140Z,98221.41
2022-08-18T09:43:14.936Z,98232.41
2022-08-18T09:46:36.842Z,98240.94
2022-08-18T09:49:53.128Z,98235.22
2022-08-18T09:52:57.778Z,98234.22
2022-08-18T09:56:05.163Z,98239.53
2022-08-18T09:59:40.457Z,98250.53
2022-08-18T10:03:01.304Z,98243.50
2022-08-18T10:06:19.067Z,98232.06
2022-08-18T10:13:00.346Z,98244.66
2022-08-18T10:16:10.853Z,98250.50
2022-08-18T10:19:17.347Z,98245.34
2022-08-18T10:22:35.305Z,98239.63
2022-08-18T10:25:41.079Z,98236.50
2022-08-18T10:28:55.476Z,98232.94
2022-08-18T10:32:22.273Z,98235.91
2022-08-18T10:35:52.324Z,98228.06
2022-08-18T10:38:54.187Z,98235.16
2022-08-18T10:42:00.539Z,98229.72
2022-08-18T10:45:06.735Z,98227.47
2022-08-18T10:48:16.749Z,98232.97
2022-08-18T10:51:25.832Z,98234.00
2022-08-18T10:54:36.188Z,98244.88
2022-08-18T10:58:07.838Z,98235.25
2022-08-18T11:01:20.858Z,98231.81
2022-08-18T11:04:34.172Z,98235.31
2022-08-18T11:07:44.966Z,98232.03
2022-08-18T11:11:27.135Z,98231.66
2022-08-18T11:14:24.129Z,98226.06
2022-08-18T11:17:42.662Z,98226.75
2022-08-18T11:20:47.389Z,98232.13
2022-08-18T11:24:01.885Z,98221.97
2022-08-18T11:27:04.669Z,98225.84
2022-08-18T11:30:17.711Z,98220.59
2022-08-18T11:33:22.683Z,98224.94
2022-08-18T11:36:32.695Z,98217.59
2022-08-18T11:39:42.814Z,98204.72
2022-08-18T11:42:57.740Z,98200.41
2022-08-18T11:46:04.433Z,98194.41
2022-08-18T11:49:16.935Z,98199.22
2022-08-18T11:52:34.155Z,98194.41
2022-08-18T11:55:37.260Z,98198.03
2022-08-18T11:58:43.349Z,98190.09
2022-08-18T12:01:51.537Z,98195.63
2022-08-18T12:05:08.596Z,98183.91
2022-08-18T12:11:50.750Z,98181.75
2022-08-18T12:15:02.909Z,98177.13
2022-08-18T12:18:10.776Z,98177.81
2022-08-18T12:21:22.287Z,98182.72
2022-08-18T12:24:26.418Z,98185.28
2022-08-18T12:27:33.805Z,98185.69
2022-08-18T12:30:35.514Z,98186.25
2022-08-18T12:33:48.141Z,98185.94
2022-08-18T12:37:01.512Z,98179.03
2022-08-18T12:40:06.101Z,98175.38
2022-08-18T12:43:08.375Z,98166.97
2022-08-18T12:46:11.925Z,98159.31
2022-08-18T12:49:17.608Z,98151.41
2022-08-18T12:52:21.190Z,98152.84
2022-08-18T12:55:28.520Z,98152.53
2022-08-18T12:58:30.136Z,98154.78
2022-08-18T13:01:32.518Z,98166.19
2022-08-18T13:04:34.150Z,98170.72
2022-08-18T13:07:37.286Z,98176.53
2022-08-18T13:10:45.221Z,98178.53
2022-08-18T13:13:56.559Z,98171.34
2022-08-18T13:16:58.991Z,98161.41
2022-08-18T13:20:01.367Z,98155.09
2022-08-18T13:23:04.353Z,98148.72
2022-08-18T13:26:13.525Z,98147.81
2022-08-18T13:29:17.461Z,98137.53
2022-08-18T13:32:19.831Z,98136.44
2022-08-18T13:35:24.107Z,98131.50
2022-08-18T13:38:28.252Z,98130.16
2022-08-18T13:41:32.525Z,98136.94
2022-08-18T13:44:35.302Z,98131.50
2022-08-18T13:47:38.227Z,98128.44
2022-08-18T13:50:40.401Z,98133.59
2022-08-18T13:53:57.735Z,98137.72
2022-08-18T13:57:04.503Z,98134.81
2022-08-18T14:00:17.923Z,98131.75
2022-08-18T14:03:42.901Z,98123.59
2022-08-18T14:06:47.089Z,98107.59
2022-08-18T14:09:59.160Z,98107.78
2022-08-18T14:13:11.961Z,98114.06
2022-08-18T14:16:22.861Z,98121.91
2022-08-18T14:19:46.923Z,98119.66
2022-08-18T14:23:09.189Z,98115.78
2022-08-18T14:26:31.034Z,98121.22
2022-08-18T14:29:45.444Z,98119.66
2022-08-18T14:32:49.540Z,98115.22
2022-08-18T14:36:05.795Z,98112.66
2022-08-18T14:39:08.616Z,98105.81
2022-08-18T14:42:12.658Z,98108.38
2022-08-18T14:45:26.432Z,98104.97
2022-08-18T14:48:37.113Z,98105.31
2022-08-18T14:51:42.596Z,98108.88
2022-08-18T14:54:46.321Z,98120.09
2022-08-18T14:57:54.467Z,98120.94
2022-08-18T15:00:57.187Z,98123.50
2022-08-18T15:03:59.183Z,98117.22
2022-08-18T15:07:02.736Z,98117.03
2022-08-18T15:10:15.307Z,98105.31
2022-08-18T15:13:19.706Z,98108.19
2022-08-18T15:16:31.506Z,98108.34
2022-08-18T15:19:58.913Z,98117.38
2022-08-18T15:23:13.575Z,98119.19
2022-08-18T15:26:25.953Z,98124.97
2022-08-18T15:29:30.613Z,98119.81
2022-08-18T15:32:32.776Z,98117.78
2022-08-18T15:35:35.290Z,98118.63
2022-08-18T15:38:40.911Z,98119.19
2022-08-18T15:44:53.677Z,98109.69
2022-08-18T15:47:56.053Z,98104.22
2022-08-18T15:51:06.169Z,98108.66
2022-08-18T15:54:14.127Z,98103.06
2022-08-18T15:57:34.264Z,98107.81
2022-08-18T16:00:42.512Z,98105.94
2022-08-18T16:03:48.943Z,98096.47
2022-08-18T16:06:52.519Z,98104.47
2022-08-18T16:09:54.354Z,98101.19
2022-08-18T16:12:56.767Z,98098.63
2022-08-18T16:15:59.989Z,98097.09
2022-08-18T16:19:01.992Z,98104.56
2022-08-18T16:22:06.871Z,98107.47
2022-08-18T16:25:09.281Z,98100.47
2022-08-18T16:28:13.441Z,98106.22
2022-08-18T16:31:16.693Z,98102.97
2022-08-18T16:34:21.116Z,98106.88
2022-08-18T16:37:22.876Z,98105.31
2022-08-18T16:40:24.528Z,98099.00
2022-08-18T16:43:32.711Z,98102.75
2022-08-18T16:46:37.612Z,98099.19
2022-08-18T16:49:39.594Z,98099.34
2022-08-18T16:52:41.586Z,98103.06
2022-08-18T16:55:43.432Z,98100.69
2022-08-18T16:59:06.296Z,98101.53
2022-08-18T17:02:29.794Z,98087.09
2022-08-18T17:05:34.581Z,98073.50
2022-08-18T17:08:36.802Z,98077.41
2022-08-18T17:11:51.306Z,98075.66
2022-08-18T17:14:54.581Z,98078.53
2022-08-18T17:17:57.591Z,98085.00
2022-08-18T17:21:05.782Z,98091.44
2022-08-18T17:24:08.444Z,98089.06
2022-08-18T17:27:26.676Z,98091.94
2022-08-18T17:30:31.575Z,98095.50
2022-08-18T17:33:36.562Z,98094.81
2022-08-18T17:36:41.149Z,98095.81
2022-08-18T17:39:47.142Z,98105.84
2022-08-18T17:42:51.692Z,98091.56
2022-08-18T17:45:54.602Z,98099.88
2022-08-18T17:49:00.217Z,98106.31
2022-08-18T17:52:03.213Z,98105.63
2022-08-18T17:55:09.199Z,98107.66
2022-08-18T17:58:21.628Z,98099.63
2022-08-18T18:01:24.075Z,98104.22
2022-08-18T18:04:27.369Z,98100.66
2022-08-18T18:07:33.971Z,98105.41
2022-08-18T18:14:20.240Z,98101.16
2022-08-18T18:17:26.399Z,98100.44
2022-08-18T18:20:38.224Z,98098.72
2022-08-18T18:23:41.610Z,98112.31
2022-08-18T18:26:46.393Z,98107.16
2022-08-18T18:29:53.944Z,98102.06
2022-08-18T18:32:58.870Z,98103.22
2022-08-18T18:36:04.100Z,98095.41
2022-08-18T18:39:11.186Z,98100.97
2022-08-18T18:42:18.137Z,98112.16
2022-08-18T18:45:21.675Z,98123.34
2022-08-18T18:48:45.068Z,98109.06
2022-08-18T18:51:54.042Z,98115.63
2022-08-18T18:54:59.758Z,98109.50
2022-08-18T18:58:11.052Z,98109.66
2022-08-18T19:01:17.700Z,98108.13
2022-08-18T19:04:24.284Z,98105.84
2022-08-18T19:07:32.352Z,98097.19
2022-08-18T19:10:35.738Z,98094.94
2022-08-18T19:13:43.191Z,98093.53
2022-08-18T19:16:49.865Z,98093.00
2022-08-18T19:19:53.392Z,98092.47
2022-08-18T19:22:59.821Z,98094.47
2022-08-18T19:26:02.436Z,98095.47
2022-08-18T19:29:13.219Z,98094.06
2022-08-18T19:32:20.219Z,98093.91
2022-08-18T19:35:23.426Z,98094.75
2022-08-18T19:38:31.685Z,98101.06
2022-08-18T19:41:39.520Z,98109.50
2022-08-18T19:44:55.373Z,98109.66
2022-08-18T19:48:05.607Z,98108.81
2022-08-18T19:51:12.498Z,98102.53
2022-08-18T19:54:29.144Z,98106.25
2022-08-18T19:57:43.581Z,98108.13
2022-08-18T20:00:52.024Z,98112.97
2022-08-18T20:04:05.453Z,98113.13
2022-08-18T20:07:31.565Z,98112.59
2022-08-18T20:10:47.622Z,98116.31
2022-08-18T20:13:54.798Z,98115.75
2022-08-18T20:17:12.137Z,98116.72
2022-08-18T20:20:16.909Z,98109.50
2022-08-18T20:23:33.345Z,98119.81
2022-08-18T20:26:42.300Z,98114.69
2022-08-18T20:29:46.524Z,98113.16
2022-08-18T20:33:07.028Z,98113.28
2022-08-18T20:36:13.038Z,98107.31
2022-08-18T20:39:35.489Z,98114.59
2022-08-18T20:42:49.711Z,98124.19
2022-08-18T20:46:22.010Z,98119.22
2022-08-18T20:49:28.296Z,98122.22
2022-08-18T20:52:37.805Z,98127.81
2022-08-18T20:55:44.259Z,98129.66
2022-08-18T20:58:51.607Z,98131.69
2022-08-18T21:01:56.413Z,98132.81
2022-08-18T21:04:59.278Z,98122.28
2022-08-18T21:08:04.763Z,98127.16
2022-08-18T21:11:08.704Z,98128.88
2022-08-18T21:14:12.862Z,98124.63
2022-08-18T21:17:20.543Z,98129.47
2022-08-18T21:20:23.605Z,98131.31
2022-08-18T21:23:29.482Z,98131.63
2022-08-18T21:26:31.947Z,98135.91
2022-08-18T21:29:44.310Z,98147.75
2022-08-18T21:32:50.821Z,98150.06
2022-08-18T21:35:53.871Z,98150.94
2022-08-18T21:39:05.804Z,98154.75
2022-08-18T21:42:17.961Z,98156.88
2022-08-18T21:45:23.402Z,98143.06
2022-08-18T21:48:30.630Z,98139.47
2022-08-18T21:51:33.320Z,98146.34
2022-08-18T21:54:35.110Z,98135.78
2022-08-18T21:57:50.455Z,98128.78
2022-08-18T22:01:07.723Z,98144.88
2022-08-18T22:04:19.389Z,98138.22
2022-08-18T22:07:34.623Z,98140.94
2022-08-18T22:10:58.613Z,98138.66
2022-08-18T22:14:12.203Z,98140.22
2022-08-18T22:17:25.543Z,98134.09
2022-08-18T22:20:44.615Z,98132.97
2022-08-18T22:24:04.947Z,98124.81
2022-08-18T22:27:11.763Z,98132.53
2022-08-18T22:30:13.465Z,98129.25
2022-08-18T22:33:15.457Z,98133.28
2022-08-18T22:36:20.689Z,98136.97
2022-08-18T22:39:26.170Z,98131.28
2022-08-18T22:42:29.068Z,98137.53
2022-08-18T22:45:34.072Z,98143.25
2022-08-18T22:48:35.821Z,98151.81
2022-08-18T22:51:38.937Z,98150.38
2022-08-18T22:54:40.680Z,98158.34
2022-08-18T22:57:45.606Z,98164.06
2022-08-18T23:00:51.379Z,98169.06
2022-08-18T23:03:53.688Z,98167.75
2022-08-18T23:06:56.966Z,98184.16
2022-08-18T23:09:59.240Z,98180.56
2022-08-18T23:13:04.584Z,98180.28
2022-08-18T23:16:13.289Z,98185.41
2022-08-18T23:19:29.243Z,98180.88
2022-08-18T23:22:33.341Z,98183.00
2022-08-18T23:25:35.115Z,98184.84
2022-08-18T23:28:36.789Z,98182.56
2022-08-18T23:31:38.847Z,98172.75
2022-08-18T23:34:40.768Z,98182.69
2022-08-18T23:37:44.285Z,98189.97
2022-08-18T23:40:48.705Z,98192.66
2022-08-18T23:43:53.504Z,98189.09
2022-08-18T23:46:55.788Z,98192.78
2022-08-18T23:49:58.073Z,98191.91
2022-08-18T23:53:03.025Z,98192.06
2022-08-18T23:56:07.693Z,98185.94
2022-08-18T23:59:10.180Z,98190.66
